createdAt,value
2018-09-06T00:01:39.126Z,100316.59
2018-09-06T00:04:07.459Z,100309.27
2018-09-06T00:06:35.656Z,100313.27
2018-09-06T00:09:06.160Z,100314.29
2018-09-06T00:11:34.402Z,100310.20
2018-09-06T00:14:03.421Z,100310.16
2018-09-06T00:16:31.666Z,100309.03
2018-09-06T00:19:00.486Z,100305.52
2018-09-06T00:21:28.598Z,100302.94
2018-09-06T00:23:57.020Z,100299.66
2018-09-06T00:26:25.279Z,100302.60
2018-09-06T00:28:53.581Z,100302.03
2018-09-06T00:31:21.739Z,100302.91
2018-09-06T00:33:50.065Z,100302.87
2018-09-06T00:36:18.195Z,100294.16
2018-09-06T00:38:46.529Z,100299.31
2018-09-06T00:41:14.813Z,100301.51
2018-09-06T00:43:44.181Z,100299.88
2018-09-06T00:46:12.346Z,100297.72
2018-09-06T00:48:40.544Z,100300.41
2018-09-06T00:51:08.783Z,100300.71
2018-09-06T00:53:36.928Z,100299.62
2018-09-06T00:56:05.234Z,100298.78
2018-09-06T00:58:33.514Z,100295.61
2018-09-06T01:01:01.939Z,100295.34
2018-09-06T01:03:30.111Z,100301.47
2018-09-06T01:05:58.712Z,100298.96
2018-09-06T01:08:26.943Z,100294.44
2018-09-06T01:10:55.318Z,100287.93
2018-09-06T01:13:23.517Z,100299.84
2018-09-06T01:15:51.818Z,100289.47
2018-09-06T01:18:20.337Z,100287.20
2018-09-06T01:20:48.475Z,100284.70
2018-09-06T01:23:16.801Z,100287.41
2018-09-06T01:25:47.079Z,100288.73
2018-09-06T01:28:15.891Z,100279.73
2018-09-06T01:30:44.430Z,100277.27
2018-09-06T01:33:12.548Z,100275.42
2018-09-06T01:35:48.044Z,100273.45
2018-09-06T01:38:16.626Z,100272.74
2018-09-06T01:40:45.008Z,100274.64
2018-09-06T01:43:13.172Z,100273.32
2018-09-06T01:45:41.347Z,100270.33
2018-09-06T01:48:09.538Z,100267.58
2018-09-06T01:50:37.830Z,100268.88
2018-09-06T01:53:06.059Z,100262.87
2018-09-06T01:55:34.454Z,100260.59
2018-09-06T01:58:02.634Z,100256.46
2018-09-06T02:00:30.933Z,100264.02
2018-09-06T02:02:59.121Z,100254.61
2018-09-06T02:05:35.061Z,100256.93
2018-09-06T02:08:04.346Z,100253.70
2018-09-06T02:10:32.752Z,100255.89
2018-09-06T02:13:01.057Z,100240.70
2018-09-06T02:15:29.355Z,100241.48
2018-09-06T02:17:57.569Z,100242.28
2018-09-06T02:20:25.919Z,100243.99
2018-09-06T02:22:54.359Z,100228.80
2018-09-06T02:25:22.696Z,100223.63
2018-09-06T02:27:51.077Z,100217.92
2018-09-06T02:30:20.906Z,100220.87
2018-09-06T02:32:49.072Z,100217.30
2018-09-06T02:35:17.394Z,100217.00
2018-09-06T02:37:46.452Z,100220.82
2018-09-06T02:40:20.448Z,100219.72
2018-09-06T02:42:48.692Z,100216.47
2018-09-06T02:45:16.902Z,100215.08
2018-09-06T02:47:51.719Z,100215.08
2018-09-06T02:50:25.721Z,100211.56
2018-09-06T02:52:54.695Z,100203.70
2018-09-06T02:55:23.879Z,100207.17
2018-09-06T02:57:52.187Z,100213.18
2018-09-06T03:00:26.026Z,100206.45
2018-09-06T03:02:54.702Z,100207.78
2018-09-06T03:05:24.034Z,100208.84
2018-09-06T03:07:53.074Z,100209.70
2018-09-06T03:10:21.831Z,100218.45
2018-09-06T03:12:50.867Z,100207.55
2018-09-06T03:15:19.310Z,100208.88
2018-09-06T03:17:47.854Z,100217.00
2018-09-06T03:20:16.220Z,100203.05
2018-09-06T03:22:45.358Z,100200.06
2018-09-06T03:25:13.946Z,100205.85
2018-09-06T03:27:42.219Z,100208.27
2018-09-06T03:30:10.610Z,100196.77
2018-09-06T03:32:38.680Z,100201.38
2018-09-06T03:35:07.710Z,100193.91
2018-09-06T03:37:35.973Z,100196.98
2018-09-06T03:40:04.304Z,100201.06
2018-09-06T03:42:32.605Z,100201.02
2018-09-06T03:45:00.804Z,100203.86
2018-09-06T03:47:29.053Z,100198.60
2018-09-06T03:49:57.328Z,100199.48
2018-09-06T03:52:25.615Z,100193.25
2018-09-06T03:54:53.793Z,100201.07
2018-09-06T03:57:22.138Z,100202.89
2018-09-06T03:59:50.378Z,100205.30
2018-09-06T04:02:18.676Z,100202.22
2018-09-06T04:04:46.953Z,100200.70
2018-09-06T04:07:15.976Z,100202.75
2018-09-06T04:09:44.123Z,100203.63
2018-09-06T04:12:12.293Z,100204.62
2018-09-06T04:14:40.575Z,100203.00
2018-09-06T04:17:09.613Z,100205.36
2018-09-06T04:19:37.742Z,100193.65
2018-09-06T04:22:05.949Z,100199.23
2018-09-06T04:24:34.126Z,100196.47
2018-09-06T04:27:02.379Z,100200.22
2018-09-06T04:29:30.492Z,100201.44
2018-09-06T04:31:58.632Z,100199.19
2018-09-06T04:34:26.753Z,100199.92
2018-09-06T04:36:54.891Z,100196.52
2018-09-06T04:39:23.120Z,100200.30
2018-09-06T04:41:51.460Z,100192.36
2018-09-06T04:44:19.550Z,100198.01
2018-09-06T04:46:50.772Z,100196.45
2018-09-06T04:49:19.621Z,100192.30
2018-09-06T04:51:48.426Z,100196.37
2018-09-06T04:54:17.814Z,100192.16
2018-09-06T04:56:46.265Z,100193.15
2018-09-06T04:59:14.395Z,100185.11
2018-09-06T05:01:42.928Z,100194.27
2018-09-06T05:04:11.216Z,100188.05
2018-09-06T05:06:39.260Z,100190.52
2018-09-06T05:09:09.278Z,100190.77
2018-09-06T05:11:38.110Z,100193.22
2018-09-06T05:14:06.696Z,100197.88
2018-09-06T05:16:35.000Z,100195.48
2018-09-06T05:19:03.312Z,100195.06
2018-09-06T05:21:31.490Z,100196.95
2018-09-06T05:23:59.803Z,100192.73
2018-09-06T05:26:28.008Z,100190.88
2018-09-06T05:28:56.275Z,100194.48
2018-09-06T05:31:24.475Z,100193.27
2018-09-06T05:33:52.664Z,100194.89
2018-09-06T05:36:20.825Z,100193.87
2018-09-06T05:38:49.277Z,100202.83
2018-09-06T05:41:17.465Z,100201.23
2018-09-06T05:43:45.577Z,100194.66
2018-09-06T05:46:13.951Z,100191.67
2018-09-06T05:48:42.216Z,100188.78
2018-09-06T05:51:10.453Z,100186.18
2018-09-06T05:53:38.761Z,100180.84
2018-09-06T05:56:06.939Z,100185.72
2018-09-06T05:58:35.241Z,100182.83
2018-09-06T06:01:03.360Z,100181.27
2018-09-06T06:03:31.726Z,100186.45
2018-09-06T06:05:59.870Z,100175.86
2018-09-06T06:08:42.523Z,100181.06
2018-09-06T06:11:10.731Z,100180.25
2018-09-06T06:13:38.893Z,100180.83
2018-09-06T06:16:07.333Z,100180.59
2018-09-06T06:18:35.775Z,100180.61
2018-09-06T06:21:04.661Z,100178.14
2018-09-06T06:23:32.945Z,100178.69
2018-09-06T06:26:01.096Z,100178.16
2018-09-06T06:28:29.399Z,100178.70
2018-09-06T06:30:57.569Z,100172.42
2018-09-06T06:33:25.841Z,100173.79
2018-09-06T06:35:54.128Z,100171.29
2018-09-06T06:38:22.266Z,100163.66
2018-09-06T06:40:50.538Z,100165.58
2018-09-06T06:43:18.695Z,100163.61
2018-09-06T06:45:46.989Z,100160.80
2018-09-06T06:48:15.118Z,100158.03
2018-09-06T06:50:43.490Z,100160.95
2018-09-06T06:53:12.390Z,100163.63
2018-09-06T06:55:40.527Z,100156.77
2018-09-06T06:58:08.735Z,100157.62
2018-09-06T07:00:38.796Z,100161.41
2018-09-06T07:03:07.667Z,100156.50
2018-09-06T07:05:35.757Z,100162.42
2018-09-06T07:08:04.034Z,100155.69
2018-09-06T07:10:35.250Z,100159.35
2018-09-06T07:13:06.461Z,100156.35
2018-09-06T07:15:34.854Z,100149.76
2018-09-06T07:18:07.587Z,100152.61
2018-09-06T07:20:35.928Z,100144.95
2018-09-06T07:23:04.260Z,100149.65
2018-09-06T07:25:32.662Z,100155.17
2018-09-06T07:28:00.948Z,100146.73
2018-09-06T07:30:29.148Z,100145.06
2018-09-06T07:32:57.304Z,100141.31
2018-09-06T07:35:25.526Z,100149.43
2018-09-06T07:37:53.734Z,100146.97
2018-09-06T07:40:21.874Z,100144.31
2018-09-06T07:42:50.020Z,100139.55
2018-09-06T07:45:18.308Z,100131.11
2018-09-06T07:47:46.430Z,100133.86
2018-09-06T07:50:14.686Z,100132.88
2018-09-06T07:52:42.901Z,100135.52
2018-09-06T07:55:11.409Z,100128.80
2018-09-06T07:57:39.690Z,100130.02
2018-09-06T08:00:08.007Z,100132.02
2018-09-06T08:02:36.227Z,100122.77
2018-09-06T08:05:04.585Z,100122.29
2018-09-06T08:07:32.759Z,100120.88
2018-09-06T08:10:00.909Z,100119.78
2018-09-06T08:12:29.218Z,100127.96
2018-09-06T08:14:57.399Z,100126.47
2018-09-06T08:17:25.685Z,100120.98
2018-09-06T08:19:54.158Z,100115.36
2018-09-06T08:22:22.399Z,100109.02
2018-09-06T08:24:50.545Z,100107.95
2018-09-06T08:27:18.743Z,100105.67
2018-09-06T08:29:46.897Z,100111.27
2018-09-06T08:32:15.171Z,100113.03
2018-09-06T08:34:43.437Z,100109.14
2018-09-06T08:37:11.698Z,100106.70
2018-09-06T08:39:39.921Z,100105.28
2018-09-06T08:42:08.149Z,100107.20
2018-09-06T08:44:36.303Z,100106.38
2018-09-06T08:47:04.459Z,100105.24
2018-09-06T08:49:32.676Z,100107.15
2018-09-06T08:52:00.867Z,100100.86
2018-09-06T08:54:28.995Z,100105.72
2018-09-06T08:56:57.229Z,100100.86
2018-09-06T08:59:25.607Z,100100.86
2018-09-06T09:01:53.766Z,100100.48
2018-09-06T09:04:22.071Z,100099.27
2018-09-06T09:06:50.385Z,100091.44
2018-09-06T09:09:18.532Z,100089.59
2018-09-06T09:11:46.784Z,100085.58
2018-09-06T09:14:14.924Z,100081.56
2018-09-06T09:16:43.205Z,100080.88
2018-09-06T09:19:11.402Z,100071.78
2018-09-06T09:21:39.736Z,100076.73
2018-09-06T09:24:07.788Z,100068.75
2018-09-06T09:26:36.390Z,100075.31
2018-09-06T09:29:04.849Z,100061.37
2018-09-06T09:31:33.086Z,100057.69
2018-09-06T09:34:01.347Z,100057.49
2018-09-06T09:36:30.156Z,100058.89
2018-09-06T09:38:58.446Z,100052.20
2018-09-06T09:41:27.355Z,100049.84
2018-09-06T09:43:55.512Z,100048.74
2018-09-06T09:48:51.601Z,100045.98
2018-09-06T09:51:19.747Z,100037.44
2018-09-06T09:53:47.899Z,100037.88
2018-09-06T09:56:16.129Z,100034.39
2018-09-06T09:58:44.362Z,100032.83
2018-09-06T10:01:12.850Z,100035.09
2018-09-06T10:03:46.664Z,100024.05
2018-09-06T10:06:21.593Z,100025.33
2018-09-06T10:08:55.871Z,100018.66
2018-09-06T10:11:24.418Z,100024.43
2018-09-06T10:13:52.651Z,100019.30
2018-09-06T10:16:20.873Z,100015.52
2018-09-06T10:18:49.612Z,100010.42
2018-09-06T10:21:17.870Z,100004.23
2018-09-06T10:23:46.123Z,100008.12
2018-09-06T10:26:14.309Z,100006.86
2018-09-06T10:28:42.584Z,100002.86
2018-09-06T10:31:10.784Z,99996.13
2018-09-06T10:33:38.947Z,99994.65
2018-09-06T10:36:07.136Z,99994.50
2018-09-06T10:38:35.338Z,99984.16
2018-09-06T10:41:03.656Z,99992.47
2018-09-06T10:43:31.888Z,99990.42
2018-09-06T10:46:00.074Z,99974.58
2018-09-06T10:48:28.246Z,99968.57
2018-09-06T10:50:57.054Z,99966.77
2018-09-06T10:53:25.320Z,99964.45
2018-09-06T10:55:54.089Z,99964.94
2018-09-06T10:58:22.392Z,99967.69
2018-09-06T11:00:55.291Z,99957.13
2018-09-06T11:03:23.577Z,99956.41
2018-09-06T11:05:52.493Z,99952.05
2018-09-06T11:08:20.705Z,99946.84
2018-09-06T11:10:48.805Z,99950.71
2018-09-06T11:13:17.280Z,99938.98
2018-09-06T11:15:45.384Z,99932.82
2018-09-06T11:18:13.579Z,99925.87
2018-09-06T11:20:42.042Z,99930.06
2018-09-06T11:23:10.298Z,99922.41
2018-09-06T11:25:38.397Z,99928.56
2018-09-06T11:28:06.832Z,99920.31
2018-09-06T11:30:34.925Z,99924.87
2018-09-06T11:33:03.214Z,99913.54
2018-09-06T11:35:31.740Z,99915.94
2018-09-06T11:38:00.028Z,99915.11
2018-09-06T11:40:28.253Z,99912.09
2018-09-06T11:42:56.483Z,99909.66
2018-09-06T11:45:24.617Z,99913.58
2018-09-06T11:47:52.997Z,99904.40
2018-09-06T11:50:21.210Z,99901.33
2018-09-06T11:52:49.432Z,99895.59
2018-09-06T11:55:17.755Z,99891.78
2018-09-06T11:57:45.899Z,99891.92
2018-09-06T12:00:14.202Z,99896.04
2018-09-06T12:02:42.445Z,99888.75
2018-09-06T12:05:10.679Z,99885.03
2018-09-06T12:07:38.944Z,99888.97
2018-09-06T12:10:07.208Z,99881.02
2018-09-06T12:12:35.490Z,99883.48
2018-09-06T12:15:04.429Z,99869.78
2018-09-06T12:17:32.644Z,99870.71
2018-09-06T12:20:00.748Z,99872.72
2018-09-06T12:22:28.924Z,99871.41
2018-09-06T12:24:57.049Z,99863.23
2018-09-06T12:27:25.178Z,99867.83
2018-09-06T12:29:53.350Z,99858.63
2018-09-06T12:32:21.608Z,99864.92
2018-09-06T12:34:49.804Z,99862.91
2018-09-06T12:37:24.743Z,99851.27
2018-09-06T12:39:53.126Z,99849.77
2018-09-06T12:42:21.247Z,99849.66
2018-09-06T12:44:49.581Z,99852.92
2018-09-06T12:47:17.783Z,99846.25
2018-09-06T12:49:46.259Z,99844.58
2018-09-06T12:52:14.377Z,99840.91
2018-09-06T12:54:42.712Z,99838.91
2018-09-06T12:57:10.985Z,99833.78
2018-09-06T12:59:39.474Z,99829.17
2018-09-06T13:02:07.672Z,99820.95
2018-09-06T13:04:36.112Z,99817.77
2018-09-06T13:07:04.359Z,99819.48
2018-09-06T13:09:32.603Z,99811.64
2018-09-06T13:12:00.900Z,99806.77
2018-09-06T13:14:29.056Z,99807.42
2018-09-06T13:16:57.386Z,99804.25
2018-09-06T13:19:25.900Z,99801.59
2018-09-06T13:21:54.079Z,99797.22
2018-09-06T13:24:22.317Z,99790.16
2018-09-06T13:26:51.151Z,99787.21
2018-09-06T13:29:20.577Z,99782.39
2018-09-06T13:31:49.154Z,99783.39
2018-09-06T13:34:17.444Z,99778.27
2018-09-06T13:36:45.576Z,99776.27
2018-09-06T13:39:13.755Z,99776.34
2018-09-06T13:41:42.101Z,99774.73
2018-09-06T13:44:10.316Z,99772.88
2018-09-06T13:46:38.561Z,99770.80
2018-09-06T13:49:06.930Z,99772.56
2018-09-06T13:51:35.161Z,99762.80
2018-09-06T13:54:03.502Z,99757.20
2018-09-06T13:56:31.795Z,99756.33
2018-09-06T13:59:00.010Z,99753.91
2018-09-06T14:01:28.335Z,99758.56
2018-09-06T14:03:56.644Z,99757.80
2018-09-06T14:06:24.996Z,99751.94
2018-09-06T14:08:53.097Z,99742.10
2018-09-06T14:11:21.417Z,99736.34
2018-09-06T14:13:49.537Z,99733.34
2018-09-06T14:16:17.892Z,99734.24
2018-09-06T14:18:46.106Z,99734.00
2018-09-06T14:21:14.237Z,99726.06
2018-09-06T14:23:42.409Z,99729.19
2018-09-06T14:26:10.698Z,99732.09
2018-09-06T14:28:38.873Z,99726.31
2018-09-06T14:31:07.175Z,99719.63
2018-09-06T14:33:35.439Z,99713.69
2018-09-06T14:36:04.461Z,99705.86
2018-09-06T14:38:32.604Z,99712.47
2018-09-06T14:41:01.025Z,99702.86
2018-09-06T14:43:29.263Z,99698.64
2018-09-06T14:45:57.591Z,99704.84
2018-09-06T14:48:25.855Z,99703.36
2018-09-06T14:50:54.098Z,99697.80
2018-09-06T14:53:22.205Z,99696.75
2018-09-06T14:55:50.566Z,99694.29
2018-09-06T14:58:18.821Z,99692.31
2018-09-06T15:00:47.088Z,99689.53
2018-09-06T15:03:15.275Z,99691.37
2018-09-06T15:05:43.554Z,99688.14
2018-09-06T15:08:11.924Z,99686.08
2018-09-06T15:10:40.266Z,99688.28
2018-09-06T15:13:08.391Z,99683.91
2018-09-06T15:15:36.539Z,99682.89
2018-09-06T15:18:04.963Z,99680.19
2018-09-06T15:20:33.035Z,99679.38
2018-09-06T15:23:01.250Z,99679.48
2018-09-06T15:25:29.523Z,99673.83
2018-09-06T15:27:58.445Z,99678.36
2018-09-06T15:30:26.603Z,99675.59
2018-09-06T15:32:55.292Z,99670.22
2018-09-06T15:35:23.502Z,99673.78
2018-09-06T15:37:51.725Z,99670.34
2018-09-06T15:40:19.968Z,99672.45
2018-09-06T15:42:48.275Z,99674.44
2018-09-06T15:45:16.532Z,99671.66
2018-09-06T15:47:44.749Z,99666.94
2018-09-06T15:50:13.036Z,99661.73
2018-09-06T15:52:41.260Z,99663.95
2018-09-06T15:55:09.435Z,99668.86
2018-09-06T15:57:37.679Z,99664.70
2018-09-06T16:00:05.931Z,99670.64
2018-09-06T16:02:34.264Z,99665.77
2018-09-06T16:05:02.498Z,99657.91
2018-09-06T16:07:30.629Z,99655.23
2018-09-06T16:09:58.765Z,99661.92
2018-09-06T16:12:26.939Z,99657.16
2018-09-06T16:14:55.051Z,99656.91
2018-09-06T16:17:23.173Z,99656.70
2018-09-06T16:19:51.404Z,99653.16
2018-09-06T16:22:19.515Z,99653.93
2018-09-06T16:24:47.639Z,99653.25
2018-09-06T16:27:15.869Z,99649.45
2018-09-06T16:29:44.085Z,99654.94
2018-09-06T16:32:12.297Z,99655.33
2018-09-06T16:34:40.497Z,99647.36
2018-09-06T16:37:08.715Z,99652.44
2018-09-06T16:39:36.934Z,99659.16
2018-09-06T16:42:05.080Z,99652.95
2018-09-06T16:44:33.271Z,99657.92
2018-09-06T16:47:01.417Z,99657.70
2018-09-06T16:49:29.545Z,99655.06
2018-09-06T16:51:58.317Z,99654.37
2018-09-06T16:54:26.542Z,99650.75
2018-09-06T16:56:54.683Z,99652.84
2018-09-06T16:59:22.914Z,99654.66
2018-09-06T17:01:51.141Z,99644.25
2018-09-06T17:04:19.462Z,99638.82
2018-09-06T17:06:47.681Z,99643.16
2018-09-06T17:09:15.926Z,99632.41
2018-09-06T17:11:44.089Z,99642.95
2018-09-06T17:14:12.252Z,99633.48
2018-09-06T17:16:40.407Z,99634.38
2018-09-06T17:19:08.668Z,99629.70
2018-09-06T17:21:36.958Z,99629.06
2018-09-06T17:24:05.212Z,99631.11
2018-09-06T17:26:33.461Z,99633.34
2018-09-06T17:29:02.366Z,99636.38
2018-09-06T17:31:30.479Z,99634.89
2018-09-06T17:33:58.775Z,99637.98
2018-09-06T17:36:26.959Z,99633.08
2018-09-06T17:38:55.280Z,99639.14
2018-09-06T17:41:23.390Z,99648.59
2018-09-06T17:43:51.552Z,99646.47
2018-09-06T17:46:19.755Z,99654.15
2018-09-06T17:48:48.025Z,99651.50
2018-09-06T17:51:16.177Z,99650.23
2018-09-06T17:53:44.894Z,99654.30
2018-09-06T17:56:13.066Z,99651.31
2018-09-06T17:58:41.301Z,99652.58
2018-09-06T18:01:19.373Z,99653.84
2018-09-06T18:03:47.727Z,99653.17
2018-09-06T18:06:16.122Z,99654.07
2018-09-06T18:08:44.495Z,99653.28
2018-09-06T18:11:13.575Z,99655.83
2018-09-06T18:13:42.131Z,99654.69
2018-09-06T18:16:11.486Z,99660.69
2018-09-06T18:18:39.667Z,99657.95
2018-09-06T18:21:08.141Z,99662.75
2018-09-06T18:23:36.424Z,99663.08
2018-09-06T18:26:05.181Z,99660.06
2018-09-06T18:28:33.657Z,99664.36
2018-09-06T18:31:01.837Z,99664.98
2018-09-06T18:33:30.041Z,99667.18
2018-09-06T18:35:58.455Z,99664.38
2018-09-06T18:38:26.777Z,99664.63
2018-09-06T18:40:55.018Z,99670.33
2018-09-06T18:43:23.248Z,99673.47
2018-09-06T18:45:51.491Z,99682.61
2018-09-06T18:48:19.824Z,99673.61
2018-09-06T18:50:48.284Z,99679.17
2018-09-06T18:53:16.511Z,99683.86
2018-09-06T18:55:44.706Z,99676.73
2018-09-06T18:58:13.205Z,99668.69
2018-09-06T19:00:41.602Z,99672.94
2018-09-06T19:03:09.871Z,99680.48
2018-09-06T19:05:38.055Z,99672.44
2018-09-06T19:08:06.837Z,99679.55
2018-09-06T19:10:35.190Z,99683.12
2018-09-06T19:13:03.587Z,99676.27
2018-09-06T19:15:31.739Z,99664.75
2018-09-06T19:18:00.176Z,99665.14
2018-09-06T19:20:28.365Z,99666.69
2018-09-06T19:22:56.543Z,99671.70
2018-09-06T19:25:24.960Z,99670.80
2018-09-06T19:27:53.984Z,99671.34
2018-09-06T19:30:22.444Z,99666.61
2018-09-06T19:32:50.689Z,99660.67
2018-09-06T19:35:18.911Z,99658.56
2018-09-06T19:37:47.098Z,99665.28
2018-09-06T19:40:15.370Z,99664.79
2018-09-06T19:42:43.581Z,99664.45
2018-09-06T19:45:11.822Z,99664.14
2018-09-06T19:47:40.100Z,99662.34
2018-09-06T19:50:08.296Z,99662.84
2018-09-06T19:52:36.568Z,99654.92
2018-09-06T19:55:05.104Z,99658.32
2018-09-06T19:57:33.654Z,99660.09
2018-09-06T20:00:01.962Z,99652.48
2018-09-06T20:02:30.225Z,99649.05
2018-09-06T20:04:58.419Z,99654.72
2018-09-06T20:07:26.698Z,99653.64
2018-09-06T20:09:55.001Z,99651.83
2018-09-06T20:12:23.247Z,99645.72
2018-09-06T20:14:51.475Z,99647.77
2018-09-06T20:17:19.845Z,99645.25
2018-09-06T20:19:48.063Z,99650.81
2018-09-06T20:22:16.350Z,99650.25
2018-09-06T20:24:44.470Z,99647.97
2018-09-06T20:27:12.582Z,99647.62
2018-09-06T20:29:40.740Z,99643.84
2018-09-06T20:32:09.160Z,99646.83
2018-09-06T20:34:37.369Z,99652.25
2018-09-06T20:37:05.833Z,99646.45
2018-09-06T20:39:34.152Z,99652.04
2018-09-06T20:42:02.477Z,99650.95
2018-09-06T20:44:30.656Z,99659.80
2018-09-06T20:46:58.975Z,99663.60
2018-09-06T20:49:27.157Z,99670.72
2018-09-06T20:51:55.289Z,99668.41
2018-09-06T20:54:23.535Z,99661.29
2018-09-06T20:56:51.847Z,99666.91
2018-09-06T20:59:20.619Z,99668.27
2018-09-06T21:01:48.773Z,99666.53
2018-09-06T21:04:16.947Z,99667.27
2018-09-06T21:06:45.168Z,99662.51
2018-09-06T21:09:13.349Z,99661.54
2018-09-06T21:11:41.654Z,99671.94
2018-09-06T21:14:09.819Z,99672.70
2018-09-06T21:16:38.143Z,99673.27
2018-09-06T21:19:06.305Z,99679.28
2018-09-06T21:21:34.495Z,99675.52
2018-09-06T21:24:02.889Z,99669.09
2018-09-06T21:26:31.085Z,99659.20
2018-09-06T21:28:59.309Z,99657.87
2018-09-06T21:31:27.418Z,99660.75
2018-09-06T21:33:55.554Z,99654.62
2018-09-06T21:36:23.684Z,99659.25
2018-09-06T21:38:52.383Z,99659.84
2018-09-06T21:41:20.787Z,99652.78
2018-09-06T21:43:49.203Z,99656.83
2018-09-06T21:46:17.850Z,99656.23
2018-09-06T21:48:46.055Z,99652.20
2018-09-06T21:51:14.473Z,99649.45
2018-09-06T21:53:42.749Z,99639.52
2018-09-06T21:56:10.872Z,99641.21
2018-09-06T21:58:39.169Z,99638.05
2018-09-06T22:01:07.468Z,99641.21
2018-09-06T22:03:41.440Z,99637.30
2018-09-06T22:06:09.640Z,99634.55
2018-09-06T22:08:38.077Z,99634.60
2018-09-06T22:11:06.440Z,99637.36
2018-09-06T22:13:34.727Z,99636.30
2018-09-06T22:16:04.550Z,99631.12
2018-09-06T22:18:32.791Z,99637.75
2018-09-06T22:21:01.042Z,99638.62
2018-09-06T22:23:29.486Z,99639.86
2018-09-06T22:25:57.781Z,99637.01
2018-09-06T22:28:26.104Z,99639.62
2018-09-06T22:30:54.284Z,99641.39
2018-09-06T22:33:22.945Z,99634.76
2018-09-06T22:35:51.116Z,99633.97
2018-09-06T22:38:19.439Z,99627.16
2018-09-06T22:40:47.588Z,99618.30
2018-09-06T22:43:15.840Z,99616.09
2018-09-06T22:45:44.112Z,99611.79
2018-09-06T22:48:12.473Z,99616.18
2018-09-06T22:50:40.607Z,99626.22
2018-09-06T22:53:09.001Z,99632.45
2018-09-06T22:55:37.171Z,99630.21
2018-09-06T22:58:05.488Z,99640.97
2018-09-06T23:00:33.623Z,99636.58
2018-09-06T23:03:07.687Z,99642.81
2018-09-06T23:05:35.846Z,99642.94
2018-09-06T23:08:04.049Z,99642.40
2018-09-06T23:10:32.372Z,99653.31
2018-09-06T23:13:00.739Z,99647.88
2018-09-06T23:15:28.945Z,99643.25
2018-09-06T23:17:57.639Z,99654.98
2018-09-06T23:20:25.812Z,99658.55
2018-09-06T23:22:53.930Z,99658.69
2018-09-06T23:25:22.116Z,99664.58
2018-09-06T23:27:50.481Z,99673.09
2018-09-06T23:30:18.762Z,99670.03
2018-09-06T23:32:47.169Z,99668.84
2018-09-06T23:35:15.265Z,99678.05
2018-09-06T23:37:43.423Z,99677.33
2018-09-06T23:40:11.823Z,99671.81
2018-09-06T23:42:39.970Z,99672.88
2018-09-06T23:45:08.322Z,99671.78
2018-09-06T23:47:36.626Z,99666.70
2018-09-06T23:50:05.472Z,99667.97
2018-09-06T23:52:33.676Z,99672.02
2018-09-06T23:55:01.856Z,99670.25
2018-09-06T23:57:30.214Z,99663.73
2018-09-06T23:59:58.336Z,99661.41
